sensor_id;sensor_type;location;lat;lon;timestamp;pressure;altitude;pressure_sealevel;temperature;humidity
4858;BME280;58975;51.978;8.472;2022-08-30T00:04:01;100811.22;;;14.99;100.00
4858;BME280;58975;51.978;8.472;2022-08-30T00:08:57;100801.06;;;14.93;100.00
4858;BME280;58975;51.978;8.472;2022-08-30T00:13:55;100803.19;;;14.99;100.00
4858;BME280;58975;51.978;8.472;2022-08-30T00:18:53;100805.28;;;14.95;100.00
4858;BME280;58975;51.978;8.472;2022-08-30T00:23:51;100811.94;;;14.91;100.00
4858;BME280;58975;51.978;8.472;2022-08-30T00:28:47;100807.56;;;14.81;100.00
4858;BME280;58975;51.978;8.472;2022-08-30T00:33:43;100809.94;;;14.74;100.00
4858;BME280;58975;51.978;8.472;2022-08-30T00:38:40;100809.09;;;14.64;100.00
4858;BME280;58975;51.978;8.472;2022-08-30T00:43:36;100800.06;;;14.65;100.00
4858;BME280;58975;51.978;8.472;2022-08-30T00:48:35;100807.69;;;14.60;100.00
4858;BME280;58975;51.978;8.472;2022-08-30T00:53:38;100802.03;;;14.53;100.00
4858;BME280;58975;51.978;8.472;2022-08-30T00:58:40;100806.25;;;14.46;100.00
4858;BME280;58975;51.978;8.472;2022-08-30T01:03:38;100802.16;;;14.42;100.00
4858;BME280;58975;51.978;8.472;2022-08-30T01:08:35;100805.09;;;14.39;100.00
4858;BME280;58975;51.978;8.472;2022-08-30T01:13:33;100808.06;;;14.36;100.00
4858;BME280;58975;51.978;8.472;2022-08-30T01:18:30;100813.66;;;14.33;100.00
4858;BME280;58975;51.978;8.472;2022-08-30T01:23:27;100813.38;;;14.27;100.00
4858;BME280;58975;51.978;8.472;2022-08-30T01:28:26;100817.44;;;14.21;100.00
4858;BME280;58975;51.978;8.472;2022-08-30T01:33:23;100804.03;;;14.21;100.00
4858;BME280;58975;51.978;8.472;2022-08-30T01:38:23;100814.19;;;14.17;100.00
4858;BME280;58975;51.978;8.472;2022-08-30T01:43:20;100807.25;;;14.05;100.00
4858;BME280;58975;51.978;8.472;2022-08-30T01:48:16;100810.88;;;14.04;100.00
4858;BME280;58975;51.978;8.472;2022-08-30T01:53:13;100823.97;;;13.98;100.00
4858;BME280;58975;51.978;8.472;2022-08-30T01:58:09;100817.91;;;13.96;100.00
4858;BME280;58975;51.978;8.472;2022-08-30T02:03:06;100819.81;;;13.84;100.00
4858;BME280;58975;51.978;8.472;2022-08-30T02:08:03;100828.31;;;13.89;100.00
4858;BME280;58975;51.978;8.472;2022-08-30T02:13:00;100830.41;;;13.86;100.00
4858;BME280;58975;51.978;8.472;2022-08-30T02:17:56;100825.72;;;13.78;100.00
4858;BME280;58975;51.978;8.472;2022-08-30T02:22:56;100834.16;;;13.73;100.00
4858;BME280;58975;51.978;8.472;2022-08-30T02:27:56;100837.09;;;13.70;100.00
4858;BME280;58975;51.978;8.472;2022-08-30T02:32:52;100843.03;;;13.74;100.00
4858;BME280;58975;51.978;8.472;2022-08-30T02:37:49;100843.69;;;13.66;100.00
4858;BME280;58975;51.978;8.472;2022-08-30T02:42:45;100843.69;;;13.66;100.00
4858;BME280;58975;51.978;8.472;2022-08-30T02:47:42;100847.06;;;13.68;100.00
4858;BME280;58975;51.978;8.472;2022-08-30T02:52:43;100846.94;;;13.70;100.00
4858;BME280;58975;51.978;8.472;2022-08-30T02:57:43;100845.97;;;13.71;100.00
4858;BME280;58975;51.978;8.472;2022-08-30T03:02:40;100849.50;;;13.71;100.00
4858;BME280;58975;51.978;8.472;2022-08-30T03:07:38;100848.06;;;13.67;100.00
4858;BME280;58975;51.978;8.472;2022-08-30T03:12:34;100834.94;;;13.64;100.00
4858;BME280;58975;51.978;8.472;2022-08-30T03:17:31;100840.28;;;13.64;100.00
4858;BME280;58975;51.978;8.472;2022-08-30T03:22:28;100830.13;;;13.58;100.00
4858;BME280;58975;51.978;8.472;2022-08-30T03:27:25;100826.88;;;13.55;100.00
4858;BME280;58975;51.978;8.472;2022-08-30T03:32:22;100827.84;;;13.54;100.00
4858;BME280;58975;51.978;8.472;2022-08-30T03:37:19;100821.53;;;13.55;100.00
4858;BME280;58975;51.978;8.472;2022-08-30T03:42:22;100831.38;;;13.54;100.00
4858;BME280;58975;51.978;8.472;2022-08-30T03:47:20;100825.44;;;13.51;100.00
4858;BME280;58975;51.978;8.472;2022-08-30T03:52:16;100842.47;;;13.50;100.00
4858;BME280;58975;51.978;8.472;2022-08-30T03:57:13;100836.53;;;13.46;100.00
4858;BME280;58975;51.978;8.472;2022-08-30T04:02:15;100836.78;;;13.43;100.00
4858;BME280;58975;51.978;8.472;2022-08-30T04:07:11;100835.25;;;13.41;100.00
4858;BME280;58975;51.978;8.472;2022-08-30T04:12:08;100828.31;;;13.38;100.00
4858;BME280;58975;51.978;8.472;2022-08-30T04:17:05;100830.97;;;13.38;100.00
4858;BME280;58975;51.978;8.472;2022-08-30T04:22:01;100833.19;;;13.33;100.00
4858;BME280;58975;51.978;8.472;2022-08-30T04:26:57;100838.97;;;13.29;100.00
4858;BME280;58975;51.978;8.472;2022-08-30T04:31:54;100830.47;;;13.23;100.00
4858;BME280;58975;51.978;8.472;2022-08-30T04:36:50;100839.19;;;13.25;100.00
4858;BME280;58975;51.978;8.472;2022-08-30T04:41:47;100838.88;;;13.19;100.00
4858;BME280;58975;51.978;8.472;2022-08-30T04:46:44;100847.63;;;13.21;100.00
4858;BME280;58975;51.978;8.472;2022-08-30T04:51:40;100851.41;;;13.18;100.00
4858;BME280;58975;51.978;8.472;2022-08-30T04:56:37;100856.63;;;13.20;100.00
4858;BME280;58975;51.978;8.472;2022-08-30T05:01:33;100856.34;;;13.23;100.00
4858;BME280;58975;51.978;8.472;2022-08-30T05:06:41;100864.84;;;13.28;100.00
4858;BME280;58975;51.978;8.472;2022-08-30T05:11:37;100867.00;;;13.34;100.00
4858;BME280;58975;51.978;8.472;2022-08-30T05:16:34;100857.88;;;13.37;100.00
4858;BME280;58975;51.978;8.472;2022-08-30T05:21:31;100872.09;;;13.37;100.00
4858;BME280;58975;51.978;8.472;2022-08-30T05:26:30;100872.81;;;13.39;100.00
4858;BME280;58975;51.978;8.472;2022-08-30T05:31:33;100882.75;;;13.48;100.00
4858;BME280;58975;51.978;8.472;2022-08-30T05:36:32;100879.19;;;13.68;100.00
4858;BME280;58975;51.978;8.472;2022-08-30T05:41:29;100872.34;;;14.06;100.00
4858;BME280;58975;51.978;8.472;2022-08-30T05:46:27;100868.50;;;14.29;100.00
4858;BME280;58975;51.978;8.472;2022-08-30T05:51:34;100869.06;;;14.23;100.00
4858;BME280;58975;51.978;8.472;2022-08-30T05:56:40;100868.72;;;14.37;100.00
4858;BME280;58975;51.978;8.472;2022-08-30T06:01:40;100876.19;;;14.43;100.00
4858;BME280;58975;51.978;8.472;2022-08-30T06:06:38;100869.47;;;14.28;100.00
4858;BME280;58975;51.978;8.472;2022-08-30T06:11:35;100883.09;;;14.15;100.00
4858;BME280;58975;51.978;8.472;2022-08-30T06:16:33;100882.31;;;13.94;100.00
4858;BME280;58975;51.978;8.472;2022-08-30T06:21:36;100897.59;;;14.03;100.00
4858;BME280;58975;51.978;8.472;2022-08-30T06:26:37;100902.78;;;14.05;100.00
4858;BME280;58975;51.978;8.472;2022-08-30T06:31:34;100891.88;;;14.17;100.00
4858;BME280;58975;51.978;8.472;2022-08-30T06:36:31;100895.38;;;14.48;100.00
4858;BME280;58975;51.978;8.472;2022-08-30T06:41:30;100889.41;;;14.35;100.00
4858;BME280;58975;51.978;8.472;2022-08-30T06:46:31;100898.88;;;14.09;100.00
4858;BME280;58975;51.978;8.472;2022-08-30T06:51:31;100900.84;;;14.07;100.00
4858;BME280;58975;51.978;8.472;2022-08-30T06:56:30;100914.41;;;14.15;100.00
4858;BME280;58975;51.978;8.472;2022-08-30T07:01:28;100899.91;;;14.48;100.00
4858;BME280;58975;51.978;8.472;2022-08-30T07:06:25;100899.59;;;15.00;100.00
4858;BME280;58975;51.978;8.472;2022-08-30T07:11:36;100892.09;;;15.42;100.00
4858;BME280;58975;51.978;8.472;2022-08-30T07:16:33;100883.75;;;15.84;100.00
4858;BME280;58975;51.978;8.472;2022-08-30T07:21:38;100878.56;;;16.09;100.00
4858;BME280;58975;51.978;8.472;2022-08-30T07:26:41;100889.88;;;16.13;100.00
4858;BME280;58975;51.978;8.472;2022-08-30T07:31:38;100894.28;;;16.41;100.00
4858;BME280;58975;51.978;8.472;2022-08-30T07:36:36;100900.25;;;17.08;100.00
4858;BME280;58975;51.978;8.472;2022-08-30T07:41:35;100900.25;;;17.25;100.00
4858;BME280;58975;51.978;8.472;2022-08-30T07:46:34;100907.56;;;17.50;100.00
4858;BME280;58975;51.978;8.472;2022-08-30T07:51:32;100907.94;;;17.38;100.00
4858;BME280;58975;51.978;8.472;2022-08-30T07:56:28;100907.50;;;17.42;100.00
4858;BME280;58975;51.978;8.472;2022-08-30T08:01:25;100909.75;;;17.90;100.00
4858;BME280;58975;51.978;8.472;2022-08-30T08:06:22;100916.53;;;17.77;100.00
4858;BME280;58975;51.978;8.472;2022-08-30T08:11:23;100922.75;;;17.95;100.00
4858;BME280;58975;51.978;8.472;2022-08-30T08:16:26;100921.34;;;18.17;100.00
4858;BME280;58975;51.978;8.472;2022-08-30T08:21:25;100934.13;;;18.40;100.00
4858;BME280;58975;51.978;8.472;2022-08-30T08:26:22;100923.47;;;18.57;100.00
4858;BME280;58975;51.978;8.472;2022-08-30T08:31:24;100927.75;;;18.83;100.00
4858;BME280;58975;51.978;8.472;2022-08-30T08:36:29;100930.63;;;18.74;100.00
4858;BME280;58975;51.978;8.472;2022-08-30T08:41:48;100932.41;;;19.23;100.00
4858;BME280;58975;51.978;8.472;2022-08-30T08:47:16;100941.81;;;18.95;100.00
4858;BME280;58975;51.978;8.472;2022-08-30T08:52:20;100929.44;;;18.51;100.00
4858;BME280;58975;51.978;8.472;2022-08-30T08:57:36;100934.03;;;18.92;100.00
4858;BME280;58975;51.978;8.472;2022-08-30T09:02:45;100924.94;;;19.09;100.00
4858;BME280;58975;51.978;8.472;2022-08-30T09:07:48;100924.25;;;18.99;100.00
4858;BME280;58975;51.978;8.472;2022-08-30T09:12:45;100919.59;;;19.25;100.00
4858;BME280;58975;51.978;8.472;2022-08-30T09:18:11;100924.03;;;19.67;100.00
4858;BME280;58975;51.978;8.472;2022-08-30T09:28:13;100922.19;;;19.59;100.00
4858;BME280;58975;51.978;8.472;2022-08-30T09:33:18;100921.34;;;19.75;100.00
4858;BME280;58975;51.978;8.472;2022-08-30T09:53:32;100921.09;;;20.72;100.00
4858;BME280;58975;51.978;8.472;2022-08-30T09:58:47;100922.34;;;20.92;100.00
4858;BME280;58975;51.978;8.472;2022-08-30T10:04:01;100918.28;;;20.96;100.00
4858;BME280;58975;51.978;8.472;2022-08-30T10:09:09;100920.53;;;20.85;100.00
4858;BME280;58975;51.978;8.472;2022-08-30T10:24:35;100906.41;;;21.88;100.00
4858;BME280;58975;51.978;8.472;2022-08-30T10:29:35;100912.50;;;21.90;100.00
4858;BME280;58975;51.978;8.472;2022-08-30T10:34:43;100898.16;;;21.82;100.00
4858;BME280;58975;51.978;8.472;2022-08-30T10:39:46;100903.75;;;21.65;100.00
4858;BME280;58975;51.978;8.472;2022-08-30T10:44:48;100908.03;;;21.97;100.00
4858;BME280;58975;51.978;8.472;2022-08-30T10:49:47;100905.34;;;21.06;100.00
4858;BME280;58975;51.978;8.472;2022-08-30T11:00:24;100898.78;;;21.69;100.00
4858;BME280;58975;51.978;8.472;2022-08-30T11:10:46;100901.13;;;22.39;100.00
4858;BME280;58975;51.978;8.472;2022-08-30T11:16:06;100893.34;;;22.65;100.00
4858;BME280;58975;51.978;8.472;2022-08-30T11:31:45;100891.81;;;23.28;100.00
4858;BME280;58975;51.978;8.472;2022-08-30T11:41:46;100885.22;;;22.80;100.00
4858;BME280;58975;51.978;8.472;2022-08-30T11:46:43;100880.91;;;22.56;100.00
4858;BME280;58975;51.978;8.472;2022-08-30T12:02:06;100879.22;;;22.84;100.00
4858;BME280;58975;51.978;8.472;2022-08-30T12:07:06;100875.09;;;22.59;100.00
4858;BME280;58975;51.978;8.472;2022-08-30T12:12:10;100879.59;;;22.81;98.94
4858;BME280;58975;51.978;8.472;2022-08-30T12:17:19;100859.69;;;22.95;98.24
4858;BME280;58975;51.978;8.472;2022-08-30T12:22:35;100865.25;;;23.30;96.61
4858;BME280;58975;51.978;8.472;2022-08-30T12:27:33;100858.16;;;23.29;92.69
4858;BME280;58975;51.978;8.472;2022-08-30T12:32:31;100854.09;;;22.82;94.89
4858;BME280;58975;51.978;8.472;2022-08-30T12:37:32;100849.97;;;22.86;87.23
4858;BME280;58975;51.978;8.472;2022-08-30T12:42:32;100844.16;;;23.53;80.66
4858;BME280;58975;51.978;8.472;2022-08-30T12:47:53;100845.81;;;23.47;71.94
4858;BME280;58975;51.978;8.472;2022-08-30T12:53:11;100847.59;;;24.17;67.06
4858;BME280;58975;51.978;8.472;2022-08-30T12:58:10;100840.38;;;24.44;65.06
4858;BME280;58975;51.978;8.472;2022-08-30T13:08:32;100834.50;;;23.72;64.40
4858;BME280;58975;51.978;8.472;2022-08-30T13:18:39;100827.44;;;24.59;60.16
4858;BME280;58975;51.978;8.472;2022-08-30T13:23:36;100827.09;;;24.69;59.13
4858;BME280;58975;51.978;8.472;2022-08-30T13:28:58;100824.34;;;24.15;71.46
4858;BME280;58975;51.978;8.472;2022-08-30T13:33:56;100810.38;;;24.31;67.54
4858;BME280;58975;51.978;8.472;2022-08-30T13:38:52;100819.13;;;23.36;75.17
4858;BME280;58975;51.978;8.472;2022-08-30T13:43:49;100818.09;;;22.95;84.92
4858;BME280;58975;51.978;8.472;2022-08-30T13:49:16;100818.50;;;22.92;79.27
4858;BME280;58975;51.978;8.472;2022-08-30T13:54:33;100817.03;;;23.38;78.34
4858;BME280;58975;51.978;8.472;2022-08-30T13:59:30;100826.94;;;24.01;70.17
4858;BME280;58975;51.978;8.472;2022-08-30T14:04:28;100819.38;;;24.31;65.09
4858;BME280;58975;51.978;8.472;2022-08-30T14:09:25;100814.31;;;24.22;65.18
4858;BME280;58975;51.978;8.472;2022-08-30T14:14:21;100808.81;;;23.81;67.34
4858;BME280;58975;51.978;8.472;2022-08-30T14:19:38;100804.34;;;23.67;69.67
4858;BME280;58975;51.978;8.472;2022-08-30T14:24:34;100804.00;;;24.11;71.04
4858;BME280;58975;51.978;8.472;2022-08-30T14:29:31;100806.22;;;23.66;70.33
4858;BME280;58975;51.978;8.472;2022-08-30T14:34:28;100817.06;;;23.60;69.09
4858;BME280;58975;51.978;8.472;2022-08-30T14:39:24;100804.53;;;22.59;78.77
4858;BME280;58975;51.978;8.472;2022-08-30T14:44:21;100803.38;;;23.04;79.47
4858;BME280;58975;51.978;8.472;2022-08-30T14:49:18;100800.72;;;23.87;67.73
4858;BME280;58975;51.978;8.472;2022-08-30T14:54:16;100795.75;;;23.63;65.22
4858;BME280;58975;51.978;8.472;2022-08-30T14:59:13;100793.97;;;23.28;71.26
4858;BME280;58975;51.978;8.472;2022-08-30T15:04:13;100789.72;;;23.68;67.85
4858;BME280;58975;51.978;8.472;2022-08-30T15:09:12;100788.38;;;24.26;62.85
4858;BME280;58975;51.978;8.472;2022-08-30T15:14:10;100795.03;;;24.17;61.28
4858;BME280;58975;51.978;8.472;2022-08-30T15:19:11;100789.88;;;24.00;62.93
4858;BME280;58975;51.978;8.472;2022-08-30T15:24:11;100792.91;;;23.50;65.14
4858;BME280;58975;51.978;8.472;2022-08-30T15:29:13;100789.38;;;23.28;67.69
4858;BME280;58975;51.978;8.472;2022-08-30T15:34:12;100780.22;;;22.87;71.41
4858;BME280;58975;51.978;8.472;2022-08-30T15:39:11;100779.78;;;23.04;74.36
4858;BME280;58975;51.978;8.472;2022-08-30T15:44:09;100771.59;;;23.81;65.44
4858;BME280;58975;51.978;8.472;2022-08-30T15:49:11;100769.00;;;24.08;58.46
4858;BME280;58975;51.978;8.472;2022-08-30T15:54:10;100765.53;;;23.79;57.40
4858;BME280;58975;51.978;8.472;2022-08-30T15:59:08;100762.59;;;23.53;56.46
4858;BME280;58975;51.978;8.472;2022-08-30T16:04:05;100757.88;;;24.43;55.24
4858;BME280;58975;51.978;8.472;2022-08-30T16:09:04;100752.84;;;23.99;58.52
4858;BME280;58975;51.978;8.472;2022-08-30T16:14:03;100757.38;;;23.86;58.19
4858;BME280;58975;51.978;8.472;2022-08-30T16:19:00;100748.72;;;23.69;58.81
4858;BME280;58975;51.978;8.472;2022-08-30T16:23:58;100743.94;;;23.43;60.42
4858;BME280;58975;51.978;8.472;2022-08-30T16:28:55;100729.19;;;23.93;57.49
4858;BME280;58975;51.978;8.472;2022-08-30T16:33:53;100729.38;;;24.39;54.52
4858;BME280;58975;51.978;8.472;2022-08-30T16:38:52;100735.28;;;24.56;54.63
4858;BME280;58975;51.978;8.472;2022-08-30T16:43:54;100719.63;;;25.63;51.46
4858;BME280;58975;51.978;8.472;2022-08-30T16:48:51;100713.97;;;29.03;42.59
4858;BME280;58975;51.978;8.472;2022-08-30T16:53:48;100716.28;;;30.89;35.79
4858;BME280;58975;51.978;8.472;2022-08-30T16:58:46;100713.81;;;30.88;34.48
4858;BME280;58975;51.978;8.472;2022-08-30T17:03:43;100714.78;;;31.49;33.46
4858;BME280;58975;51.978;8.472;2022-08-30T17:08:41;100723.03;;;30.65;34.09
4858;BME280;58975;51.978;8.472;2022-08-30T17:13:38;100733.69;;;29.70;35.23
4858;BME280;58975;51.978;8.472;2022-08-30T17:18:34;100723.88;;;29.97;35.25
4858;BME280;58975;51.978;8.472;2022-08-30T17:23:32;100729.50;;;28.20;37.74
4858;BME280;58975;51.978;8.472;2022-08-30T17:28:29;100733.44;;;27.51;39.40
4858;BME280;58975;51.978;8.472;2022-08-30T17:33:26;100733.59;;;26.75;40.45
4858;BME280;58975;51.978;8.472;2022-08-30T17:38:22;100734.06;;;25.83;42.21
4858;BME280;58975;51.978;8.472;2022-08-30T17:43:18;100740.25;;;24.33;44.92
4858;BME280;58975;51.978;8.472;2022-08-30T17:48:15;100756.31;;;22.61;50.02
4858;BME280;58975;51.978;8.472;2022-08-30T17:53:12;100758.41;;;21.79;54.46
4858;BME280;58975;51.978;8.472;2022-08-30T17:58:08;100761.00;;;21.29;56.13
4858;BME280;58975;51.978;8.472;2022-08-30T18:03:05;100765.03;;;20.87;58.77
4858;BME280;58975;51.978;8.472;2022-08-30T18:08:02;100771.22;;;20.50;62.42
4858;BME280;58975;51.978;8.472;2022-08-30T18:12:58;100760.75;;;20.08;70.48
4858;BME280;58975;51.978;8.472;2022-08-30T18:17:54;100773.75;;;19.66;80.22
4858;BME280;58975;51.978;8.472;2022-08-30T18:22:51;100768.69;;;19.38;88.46
4858;BME280;58975;51.978;8.472;2022-08-30T18:27:47;100776.81;;;19.14;90.27
4858;BME280;58975;51.978;8.472;2022-08-30T18:32:54;100782.56;;;18.87;90.50
4858;BME280;58975;51.978;8.472;2022-08-30T18:37:51;100778.66;;;18.57;94.19
4858;BME280;58975;51.978;8.472;2022-08-30T18:42:47;100781.25;;;18.33;100.00
4858;BME280;58975;51.978;8.472;2022-08-30T18:47:44;100785.41;;;18.11;100.00
4858;BME280;58975;51.978;8.472;2022-08-30T18:52:40;100779.28;;;18.01;100.00
4858;BME280;58975;51.978;8.472;2022-08-30T18:57:40;100782.41;;;17.88;100.00
4858;BME280;58975;51.978;8.472;2022-08-30T19:02:37;100788.47;;;17.82;100.00
4858;BME280;58975;51.978;8.472;2022-08-30T19:07:38;100787.00;;;17.62;100.00
4858;BME280;58975;51.978;8.472;2022-08-30T19:12:35;100793.72;;;17.40;100.00
4858;BME280;58975;51.978;8.472;2022-08-30T19:17:32;100800.66;;;17.25;100.00
4858;BME280;58975;51.978;8.472;2022-08-30T19:22:28;100794.84;;;17.12;100.00
4858;BME280;58975;51.978;8.472;2022-08-30T19:27:45;100794.00;;;17.12;100.00
4858;BME280;58975;51.978;8.472;2022-08-30T19:32:46;100796.16;;;17.08;100.00
4858;BME280;58975;51.978;8.472;2022-08-30T19:37:43;100796.50;;;17.05;100.00
4858;BME280;58975;51.978;8.472;2022-08-30T19:42:42;100804.91;;;17.28;100.00
4858;BME280;58975;51.978;8.472;2022-08-30T19:47:41;100807.13;;;17.32;100.00
4858;BME280;58975;51.978;8.472;2022-08-30T19:52:38;100807.22;;;17.48;100.00
4858;BME280;58975;51.978;8.472;2022-08-30T19:57:35;100798.53;;;17.55;100.00
4858;BME280;58975;51.978;8.472;2022-08-30T20:02:33;100802.63;;;17.59;100.00
4858;BME280;58975;51.978;8.472;2022-08-30T20:07:31;100807.53;;;17.63;100.00
4858;BME280;58975;51.978;8.472;2022-08-30T20:12:32;100795.91;;;17.63;100.00
4858;BME280;58975;51.978;8.472;2022-08-30T20:17:29;100796.13;;;17.69;100.00
4858;BME280;58975;51.978;8.472;2022-08-30T20:22:46;100794.53;;;17.59;100.00
4858;BME280;58975;51.978;8.472;2022-08-30T20:27:49;100798.00;;;17.51;100.00
4858;BME280;58975;51.978;8.472;2022-08-30T20:32:45;100798.47;;;17.46;100.00
4858;BME280;58975;51.978;8.472;2022-08-30T20:37:42;100804.66;;;17.39;100.00
4858;BME280;58975;51.978;8.472;2022-08-30T20:42:39;100798.94;;;17.42;100.00
4858;BME280;58975;51.978;8.472;2022-08-30T20:47:39;100799.41;;;17.37;100.00
4858;BME280;58975;51.978;8.472;2022-08-30T20:52:36;100793.72;;;17.40;100.00
4858;BME280;58975;51.978;8.472;2022-08-30T20:57:32;100800.19;;;17.30;100.00
4858;BME280;58975;51.978;8.472;2022-08-30T21:02:29;100813.97;;;17.27;100.00
4858;BME280;58975;51.978;8.472;2022-08-30T21:07:26;100812.81;;;17.29;100.00
4858;BME280;58975;51.978;8.472;2022-08-30T21:12:23;100804.38;;;17.24;100.00
4858;BME280;58975;51.978;8.472;2022-08-30T21:17:20;100823.03;;;17.26;100.00
4858;BME280;58975;51.978;8.472;2022-08-30T21:22:16;100815.16;;;17.24;100.00
4858;BME280;58975;51.978;8.472;2022-08-30T21:27:14;100833.59;;;17.19;100.00
4858;BME280;58975;51.978;8.472;2022-08-30T21:32:10;100828.53;;;17.16;100.00
4858;BME280;58975;51.978;8.472;2022-08-30T21:37:06;100830.16;;;17.09;100.00
4858;BME280;58975;51.978;8.472;2022-08-30T21:42:03;100822.38;;;17.06;100.00
4858;BME280;58975;51.978;8.472;2022-08-30T21:46:59;100819.00;;;17.04;100.00
4858;BME280;58975;51.978;8.472;2022-08-30T21:51:56;100820.69;;;17.05;100.00
4858;BME280;58975;51.978;8.472;2022-08-30T21:56:56;100819.16;;;17.02;100.00
4858;BME280;58975;51.978;8.472;2022-08-30T22:01:56;100824.97;;;16.98;100.00
4858;BME280;58975;51.978;8.472;2022-08-30T22:06:52;100831.22;;;16.98;100.00
4858;BME280;58975;51.978;8.472;2022-08-30T22:11:49;100828.00;;;16.95;100.00
4858;BME280;58975;51.978;8.472;2022-08-30T22:16:47;100832.69;;;16.93;100.00
4858;BME280;58975;51.978;8.472;2022-08-30T22:21:44;100842.06;;;16.89;100.00
4858;BME280;58975;51.978;8.472;2022-08-30T22:26:44;100850.06;;;16.81;100.00
4858;BME280;58975;51.978;8.472;2022-08-30T22:31:41;100860.41;;;16.76;100.00
4858;BME280;58975;51.978;8.472;2022-08-30T22:36:37;100862.03;;;16.69;100.00
4858;BME280;58975;51.978;8.472;2022-08-30T22:41:35;100860.94;;;16.62;100.00
4858;BME280;58975;51.978;8.472;2022-08-30T22:46:32;100861.81;;;16.52;100.00
4858;BME280;58975;51.978;8.472;2022-08-30T22:51:30;100869.16;;;16.50;100.00
4858;BME280;58975;51.978;8.472;2022-08-30T22:56:27;100872.78;;;16.41;100.00
4858;BME280;58975;51.978;8.472;2022-08-30T23:01:32;100868.25;;;16.42;100.00
4858;BME280;58975;51.978;8.472;2022-08-30T23:06:30;100872.22;;;16.38;100.00
4858;BME280;58975;51.978;8.472;2022-08-30T23:11:26;100866.44;;;16.33;100.00
4858;BME280;58975;51.978;8.472;2022-08-30T23:16:25;100859.66;;;16.29;100.00
4858;BME280;58975;51.978;8.472;2022-08-30T23:21:25;100862.78;;;16.24;100.00
4858;BME280;58975;51.978;8.472;2022-08-30T23:26:22;100867.31;;;16.24;100.00
4858;BME280;58975;51.978;8.472;2022-08-30T23:31:37;100871.03;;;16.23;100.00
4858;BME280;58975;51.978;8.472;2022-08-30T23:36:52;100868.34;;;16.23;100.00
4858;BME280;58975;51.978;8.472;2022-08-30T23:42:07;100871.06;;;16.13;100.00
4858;BME280;58975;51.978;8.472;2022-08-30T23:47:22;100884.69;;;16.02;100.00
4858;BME280;58975;51.978;8.472;2022-08-30T23:52:37;100882.16;;;15.91;100.00
4858;BME280;58975;51.978;8.472;2022-08-30T23:57:52;100877.06;;;15.88;100.00
